createdAt,value
2022-09-06T00:00:19.249Z,61.64
2022-09-06T00:00:39.283Z,61.65
2022-09-06T00:00:59.276Z,61.6
2022-09-06T00:01:19.335Z,61.5
2022-09-06T00:01:39.305Z,61.49
2022-09-06T00:01:59.331Z,61.47
2022-09-06T00:02:19.472Z,61.51
2022-09-06T00:02:39.472Z,61.45
2022-09-06T00:02:59.523Z,61.51
2022-09-06T00:03:19.483Z,61.6
2022-09-06T00:03:39.529Z,61.56
2022-09-06T00:03:59.600Z,61.56
2022-09-06T00:04:19.582Z,61.58
2022-09-06T00:04:39.582Z,61.64
2022-09-06T00:04:59.618Z,61.61
2022-09-06T00:05:19.619Z,61.62
2022-09-06T00:05:39.640Z,61.61
2022-09-06T00:05:59.662Z,61.55
2022-09-06T00:06:19.695Z,61.51
2022-09-06T00:06:39.682Z,61.51
2022-09-06T00:06:59.736Z,61.5
2022-09-06T00:07:19.781Z,61.53
2022-09-06T00:07:39.778Z,61.6
2022-09-06T00:07:59.759Z,61.54
2022-09-06T00:08:19.778Z,61.51
2022-09-06T00:08:39.802Z,61.54
2022-09-06T00:08:59.843Z,61.56
2022-09-06T00:09:19.921Z,61.6
2022-09-06T00:09:39.985Z,61.64
2022-09-06T00:10:00.036Z,61.62
2022-09-06T00:10:20.133Z,61.63
2022-09-06T00:10:40.168Z,61.55
2022-09-06T00:11:01.233Z,61.62
2022-09-06T00:11:20.295Z,61.74
2022-09-06T00:11:40.359Z,61.74
2022-09-06T00:12:00.410Z,61.62
2022-09-06T00:12:20.532Z,61.64
2022-09-06T00:12:40.573Z,61.7
2022-09-06T00:13:00.627Z,61.62
2022-09-06T00:13:20.692Z,61.68
2022-09-06T00:13:40.752Z,61.58
2022-09-06T00:14:00.800Z,61.59
2022-09-06T00:14:20.860Z,61.65
2022-09-06T00:14:40.915Z,61.79
2022-09-06T00:15:01.011Z,61.7
2022-09-06T00:15:21.059Z,61.64
2022-09-06T00:15:41.209Z,61.65
2022-09-06T00:16:01.297Z,61.79
2022-09-06T00:16:21.311Z,61.76
2022-09-06T00:16:41.357Z,61.82
2022-09-06T00:17:01.395Z,61.82
2022-09-06T00:17:21.434Z,61.77
2022-09-06T00:17:41.514Z,61.86
2022-09-06T00:18:01.573Z,62.02
2022-09-06T00:18:21.708Z,62.01
2022-09-06T00:18:41.699Z,62.03
2022-09-06T00:19:01.797Z,62.08
2022-09-06T00:19:21.828Z,62.2
2022-09-06T00:19:41.895Z,62.15
2022-09-06T00:20:01.948Z,62.12
2022-09-06T00:20:22.012Z,62.19
2022-09-06T00:20:42.059Z,62.2
2022-09-06T00:21:02.162Z,62.18
2022-09-06T00:21:22.211Z,62.2
2022-09-06T00:21:42.272Z,62.24
2022-09-06T00:22:02.317Z,62.27
2022-09-06T00:22:22.417Z,62.28
2022-09-06T00:22:42.497Z,62.28
2022-09-06T00:23:02.540Z,62.38
2022-09-06T00:23:22.602Z,62.25
2022-09-06T00:23:42.678Z,62.29
2022-09-06T00:24:02.720Z,62.3
2022-09-06T00:24:22.766Z,62.45
2022-09-06T00:24:42.827Z,62.48
2022-09-06T00:25:02.908Z,62.29
2022-09-06T00:25:22.980Z,62.32
2022-09-06T00:25:43.024Z,62.37
2022-09-06T00:26:03.095Z,62.37
2022-09-06T00:26:23.163Z,62.32
2022-09-06T00:26:43.228Z,62.39
2022-09-06T00:27:03.289Z,62.32
2022-09-06T00:27:23.362Z,62.43
2022-09-06T00:27:43.451Z,62.48
2022-09-06T00:28:03.480Z,62.56
2022-09-06T00:28:23.616Z,62.48
2022-09-06T00:28:43.614Z,62.45
2022-09-06T00:29:03.655Z,62.5
2022-09-06T00:29:23.785Z,62.68
2022-09-06T00:29:43.777Z,62.76
2022-09-06T00:30:03.911Z,62.83
2022-09-06T00:30:23.916Z,62.7
2022-09-06T00:30:44.040Z,62.78
2022-09-06T00:31:04.134Z,62.86
2022-09-06T00:31:24.258Z,62.82
2022-09-06T00:31:44.180Z,62.78
2022-09-06T00:32:04.252Z,62.89
2022-09-06T00:32:24.313Z,62.96
2022-09-06T00:32:44.371Z,62.95
2022-09-06T00:33:04.426Z,62.92
2022-09-06T00:33:24.506Z,62.92
2022-09-06T00:33:44.571Z,62.99
2022-09-06T00:34:04.620Z,63.04
2022-09-06T00:34:24.699Z,63.06
2022-09-06T00:34:44.749Z,63.11
2022-09-06T00:35:04.810Z,63.21
2022-09-06T00:35:24.877Z,63.16
2022-09-06T00:35:44.939Z,63.14
2022-09-06T00:36:04.995Z,63.23
2022-09-06T00:36:25.063Z,63.2
2022-09-06T00:36:45.118Z,63.16
2022-09-06T00:37:05.232Z,63.31
2022-09-06T00:37:25.234Z,63.36
2022-09-06T00:37:45.354Z,63.31
2022-09-06T00:38:05.363Z,63.33
2022-09-06T00:38:25.542Z,63.23
2022-09-06T00:38:45.548Z,63.22
2022-09-06T00:39:05.564Z,63.36
2022-09-06T00:39:25.682Z,63.44
2022-09-06T00:39:45.744Z,63.59
2022-09-06T00:40:05.855Z,63.65
2022-09-06T00:40:25.833Z,63.59
2022-09-06T00:40:45.907Z,63.5
2022-09-06T00:41:05.986Z,63.52
2022-09-06T00:41:26.018Z,63.54
2022-09-06T00:41:46.100Z,63.62
2022-09-06T00:42:06.149Z,63.66
2022-09-06T00:42:26.198Z,63.81
2022-09-06T00:42:46.299Z,63.78
2022-09-06T00:43:06.328Z,63.76
2022-09-06T00:43:26.424Z,63.71
2022-09-06T00:43:46.466Z,63.69
2022-09-06T00:44:06.559Z,63.78
2022-09-06T00:44:26.592Z,63.81
2022-09-06T00:44:46.649Z,63.7
2022-09-06T00:45:06.731Z,63.68
2022-09-06T00:45:26.792Z,63.68
2022-09-06T00:45:46.851Z,63.74
2022-09-06T00:46:06.953Z,63.84
2022-09-06T00:46:27.079Z,63.82
2022-09-06T00:46:47.018Z,63.79
2022-09-06T00:47:07.104Z,63.87
2022-09-06T00:47:27.157Z,63.77
2022-09-06T00:47:47.250Z,63.76
2022-09-06T00:48:07.305Z,63.78
2022-09-06T00:48:27.557Z,63.73
2022-09-06T00:48:47.441Z,63.75
2022-09-06T00:49:07.467Z,63.79
2022-09-06T00:49:27.561Z,63.82
2022-09-06T00:49:47.672Z,63.87
2022-09-06T00:50:07.692Z,64.11
2022-09-06T00:50:27.732Z,64.07
2022-09-06T00:50:47.818Z,64.07
2022-09-06T00:51:07.875Z,64.22
2022-09-06T00:51:27.926Z,64.06
2022-09-06T00:51:47.984Z,64.12
2022-09-06T00:52:08.106Z,64.07
2022-09-06T00:52:28.095Z,64.08
2022-09-06T00:52:48.214Z,64.28
2022-09-06T00:53:08.273Z,64.23
2022-09-06T00:53:28.296Z,64.11
2022-09-06T00:53:48.365Z,64.07
2022-09-06T00:54:08.449Z,64.08
2022-09-06T00:54:28.484Z,64.05
2022-09-06T00:54:48.562Z,64
2022-09-06T00:55:08.663Z,64.05
2022-09-06T00:55:28.737Z,64.02
2022-09-06T00:55:48.764Z,64
2022-09-06T00:56:08.840Z,63.91
2022-09-06T00:56:28.893Z,64.2
2022-09-06T00:56:48.975Z,64.2
2022-09-06T00:57:09.016Z,64.35
2022-09-06T00:57:29.081Z,64.37
2022-09-06T00:57:49.147Z,64.37
2022-09-06T00:58:09.206Z,64.39
2022-09-06T00:58:29.305Z,64.56
2022-09-06T00:58:49.325Z,64.52
2022-09-06T00:59:09.393Z,64.54
2022-09-06T00:59:29.470Z,64.67
2022-09-06T00:59:49.532Z,64.69
2022-09-06T01:00:09.594Z,64.75
2022-09-06T01:00:29.657Z,64.69
2022-09-06T01:00:49.720Z,64.85
2022-09-06T01:01:09.799Z,64.92
2022-09-06T01:01:29.982Z,64.76
2022-09-06T01:01:49.992Z,65.16
2022-09-06T01:02:10.145Z,65.14
2022-09-06T01:02:30.147Z,65.11
2022-09-06T01:02:50.310Z,65.22
2022-09-06T01:03:10.147Z,65.32
2022-09-06T01:03:30.221Z,65.26
2022-09-06T01:03:50.299Z,64.98
2022-09-06T01:04:10.304Z,64.96
2022-09-06T01:04:30.316Z,64.96
2022-09-06T01:04:50.368Z,65.02
2022-09-06T01:05:10.370Z,65
2022-09-06T01:05:30.378Z,65.16
2022-09-06T01:05:54.323Z,65.18
2022-09-06T01:06:10.427Z,65.35
2022-09-06T01:06:30.455Z,65.4
2022-09-06T01:06:50.483Z,65.01
2022-09-06T01:07:10.517Z,65.66
2022-09-06T01:07:30.521Z,65.85
2022-09-06T01:07:50.528Z,65.87
2022-09-06T01:08:10.562Z,66
2022-09-06T01:08:30.579Z,66.31
2022-09-06T01:08:50.602Z,66.08
2022-09-06T01:09:10.619Z,66.09
2022-09-06T01:09:30.661Z,66.16
2022-09-06T01:09:50.679Z,66.2
2022-09-06T01:10:10.694Z,66.19
2022-09-06T01:10:30.712Z,66.37
2022-09-06T01:10:50.746Z,66.42
2022-09-06T01:11:10.794Z,66.5
2022-09-06T01:11:30.773Z,66.56
2022-09-06T01:11:50.813Z,66.5
2022-09-06T01:12:10.826Z,66.56
2022-09-06T01:12:30.828Z,66.66
2022-09-06T01:12:50.872Z,66.67
2022-09-06T01:13:10.887Z,66.66
2022-09-06T01:13:30.954Z,66.52
2022-09-06T01:13:51.021Z,66.6
2022-09-06T01:14:11.048Z,66.86
2022-09-06T01:14:31.137Z,66.86
2022-09-06T01:14:51.207Z,66.86
2022-09-06T01:15:11.256Z,66.97
2022-09-06T01:15:31.381Z,66.82
2022-09-06T01:15:51.430Z,66.84
2022-09-06T01:16:11.563Z,66.9
2022-09-06T01:16:31.544Z,66.95
2022-09-06T01:16:51.585Z,67.02
2022-09-06T01:17:11.638Z,67.01
2022-09-06T01:17:31.726Z,67.05
2022-09-06T01:17:51.778Z,67.06
2022-09-06T01:18:11.827Z,67.19
2022-09-06T01:18:31.898Z,67.17
2022-09-06T01:18:51.960Z,67.16
2022-09-06T01:19:12.032Z,67.07
2022-09-06T01:19:32.097Z,67.48
2022-09-06T01:19:52.151Z,67.32
2022-09-06T01:20:12.229Z,67.34
2022-09-06T01:20:32.274Z,67.42
2022-09-06T01:20:52.331Z,67.63
2022-09-06T01:21:12.401Z,67.55
2022-09-06T01:21:32.487Z,67.58
2022-09-06T01:21:52.537Z,67.77
2022-09-06T01:22:12.602Z,67.71
2022-09-06T01:22:32.665Z,67.72
2022-09-06T01:22:52.726Z,67.77
2022-09-06T01:23:12.802Z,67.78
2022-09-06T01:23:32.865Z,67.8
2022-09-06T01:23:52.924Z,67.8
2022-09-06T01:24:12.984Z,67.87
2022-09-06T01:24:33.048Z,67.74
2022-09-06T01:24:53.157Z,67.77
2022-09-06T01:25:13.188Z,67.87
2022-09-06T01:25:33.238Z,67.9
2022-09-06T01:25:53.295Z,68.02
2022-09-06T01:26:13.366Z,68.07
2022-09-06T01:26:33.434Z,68.11
2022-09-06T01:26:53.465Z,68.06
2022-09-06T01:27:13.563Z,68
2022-09-06T01:27:33.609Z,67.98
2022-09-06T01:27:53.686Z,68.19
2022-09-06T01:28:13.731Z,68.2
2022-09-06T01:28:33.823Z,68.13
2022-09-06T01:28:53.873Z,68.37
2022-09-06T01:29:13.957Z,68.29
2022-09-06T01:29:33.986Z,68.26
2022-09-06T01:29:54.059Z,68.27
2022-09-06T01:30:14.099Z,68.16
2022-09-06T01:30:34.246Z,68.23
2022-09-06T01:30:54.279Z,68.32
2022-09-06T01:31:14.388Z,68.27
2022-09-06T01:31:34.380Z,68.32
2022-09-06T01:31:54.439Z,68.25
2022-09-06T01:32:14.498Z,68.25
2022-09-06T01:32:34.552Z,68.23
2022-09-06T01:32:54.636Z,68.31
2022-09-06T01:33:14.708Z,68.45
2022-09-06T01:33:34.750Z,68.67
2022-09-06T01:33:54.818Z,68.64
2022-09-06T01:34:14.895Z,68.69
2022-09-06T01:34:34.945Z,68.82
2022-09-06T01:34:55.033Z,68.75
2022-09-06T01:35:15.069Z,68.64
2022-09-06T01:35:35.144Z,68.71
2022-09-06T01:35:55.202Z,68.68
2022-09-06T01:36:15.248Z,68.72
2022-09-06T01:36:36.045Z,68.74
2022-09-06T01:37:09.456Z,68.79
2022-09-06T01:37:15.467Z,68.82
2022-09-06T01:37:35.517Z,68.71
2022-09-06T01:37:55.586Z,68.81
2022-09-06T01:38:15.664Z,68.82
2022-09-06T01:38:35.720Z,68.79
2022-09-06T01:38:55.801Z,68.82
2022-09-06T01:39:15.849Z,68.93
2022-09-06T01:39:35.971Z,68.81
2022-09-06T01:39:56.041Z,68.8
2022-09-06T01:40:16.048Z,68.8
2022-09-06T01:40:36.128Z,68.87
2022-09-06T01:40:56.201Z,68.82
2022-09-06T01:41:16.207Z,68.75
2022-09-06T01:41:36.307Z,68.83
2022-09-06T01:41:56.360Z,68.81
2022-09-06T01:42:16.404Z,68.67
2022-09-06T01:42:36.501Z,68.77
2022-09-06T01:42:56.573Z,68.87
2022-09-06T01:43:16.618Z,68.88
2022-09-06T01:43:36.721Z,68.9
2022-09-06T01:43:56.777Z,68.87
2022-09-06T01:44:16.797Z,69
2022-09-06T01:44:36.876Z,69.04
2022-09-06T01:44:56.926Z,69.02
2022-09-06T01:45:16.981Z,69.02
2022-09-06T01:45:37.049Z,68.98
2022-09-06T01:45:57.208Z,68.92
2022-09-06T01:46:17.233Z,68.83
2022-09-06T01:46:37.299Z,68.79
2022-09-06T01:46:57.313Z,68.86
2022-09-06T01:47:17.369Z,68.99
2022-09-06T01:47:37.426Z,69.11
2022-09-06T01:47:57.520Z,69.14
2022-09-06T01:48:17.552Z,69.14
2022-09-06T01:48:37.636Z,69.22
2022-09-06T01:48:57.730Z,69.24
2022-09-06T01:49:17.765Z,69.21
2022-09-06T01:49:37.819Z,69.26
2022-09-06T01:49:57.907Z,69.33
2022-09-06T01:50:17.948Z,69.41
2022-09-06T01:50:38.003Z,69.3
2022-09-06T01:50:58.093Z,69.46
2022-09-06T01:51:18.137Z,69.42
2022-09-06T01:51:38.197Z,69.44
2022-09-06T01:51:58.286Z,69.48
2022-09-06T01:52:18.331Z,69.46
2022-09-06T01:52:38.389Z,69.37
2022-09-06T01:52:58.462Z,69.48
2022-09-06T01:53:18.548Z,69.55
2022-09-06T01:53:38.601Z,69.68
2022-09-06T01:53:58.669Z,69.72
2022-09-06T01:54:18.744Z,69.92
2022-09-06T01:54:38.783Z,70.02
2022-09-06T01:54:58.843Z,70.04
2022-09-06T01:55:18.914Z,70.06
2022-09-06T01:55:38.965Z,70.18
2022-09-06T01:55:59.061Z,70.3
2022-09-06T01:56:19.080Z,70.42
2022-09-06T01:56:39.169Z,70.41
2022-09-06T01:56:59.250Z,70.43
2022-09-06T01:57:19.317Z,70.45
2022-09-06T01:57:39.368Z,70.37
2022-09-06T01:57:59.430Z,70.39
2022-09-06T01:58:19.473Z,70.44
2022-09-06T01:58:39.564Z,70.55
2022-09-06T01:58:59.635Z,70.61
2022-09-06T01:59:19.711Z,70.67
2022-09-06T01:59:39.754Z,70.54
2022-09-06T01:59:59.815Z,70.55
2022-09-06T02:00:19.872Z,70.69
2022-09-06T02:00:39.948Z,70.77
2022-09-06T02:01:00.027Z,70.67
2022-09-06T02:01:20.103Z,70.8
2022-09-06T02:01:40.168Z,70.7
2022-09-06T02:02:00.192Z,70.81
2022-09-06T02:02:20.335Z,70.84
2022-09-06T02:02:40.413Z,70.92
2022-09-06T02:03:00.376Z,70.93
2022-09-06T02:03:20.439Z,70.96
2022-09-06T02:03:40.505Z,70.89
2022-09-06T02:04:00.565Z,70.91
2022-09-06T02:04:20.647Z,70.91
2022-09-06T02:04:40.700Z,70.81
2022-09-06T02:05:00.753Z,70.87
2022-09-06T02:05:20.849Z,70.93
2022-09-06T02:05:40.889Z,71.01
2022-09-06T02:06:01.017Z,71.07
2022-09-06T02:06:20.999Z,71.24
2022-09-06T02:06:41.094Z,71.3
2022-09-06T02:07:01.145Z,71.15
2022-09-06T02:07:21.232Z,71.09
2022-09-06T02:07:41.256Z,71.18
2022-09-06T02:08:01.336Z,71.08
2022-09-06T02:08:21.430Z,71.06
2022-09-06T02:08:41.473Z,71.42
2022-09-06T02:09:01.532Z,71.62
2022-09-06T02:09:21.622Z,71.71
2022-09-06T02:09:41.658Z,71.73
2022-09-06T02:10:01.724Z,71.8
2022-09-06T02:10:21.807Z,71.81
2022-09-06T02:10:41.852Z,71.77
2022-09-06T02:11:01.895Z,71.73
2022-09-06T02:11:21.986Z,71.68
2022-09-06T02:11:42.058Z,71.7
2022-09-06T02:12:02.112Z,71.74
2022-09-06T02:12:22.173Z,71.77
2022-09-06T02:12:42.244Z,71.9
2022-09-06T02:13:02.307Z,71.87
2022-09-06T02:13:22.329Z,71.69
2022-09-06T02:13:42.386Z,71.58
2022-09-06T02:14:02.443Z,71.73
2022-09-06T02:14:22.459Z,71.81
2022-09-06T02:14:42.490Z,71.82
2022-09-06T02:15:02.520Z,71.83
2022-09-06T02:15:22.531Z,71.8
2022-09-06T02:15:42.562Z,71.84
2022-09-06T02:16:02.579Z,71.78
2022-09-06T02:16:22.659Z,71.84
2022-09-06T02:16:42.701Z,71.94
2022-09-06T02:17:02.715Z,72.06
2022-09-06T02:17:22.674Z,72.12
2022-09-06T02:17:42.677Z,72.06
2022-09-06T02:18:02.714Z,72.14
2022-09-06T02:18:22.845Z,71.81
2022-09-06T02:18:42.754Z,72.15
2022-09-06T02:19:02.746Z,71.75
2022-09-06T02:19:22.794Z,72.1
2022-09-06T02:19:42.821Z,72.42
2022-09-06T02:20:02.842Z,72.63
2022-09-06T02:20:22.881Z,72.58
2022-09-06T02:20:42.910Z,72.54
2022-09-06T02:21:02.915Z,72.01
2022-09-06T02:21:22.970Z,72.41
2022-09-06T02:21:43.006Z,72.69
2022-09-06T02:22:03.015Z,72.77
2022-09-06T02:22:23.060Z,72.76
2022-09-06T02:22:43.063Z,72.92
2022-09-06T02:23:03.087Z,72.97
2022-09-06T02:23:23.091Z,72.83
2022-09-06T02:23:43.091Z,73.01
2022-09-06T02:24:03.157Z,73.08
2022-09-06T02:24:23.152Z,73.01
2022-09-06T02:24:43.181Z,73.06
2022-09-06T02:25:03.206Z,73.14
2022-09-06T02:25:23.226Z,73.09
2022-09-06T02:25:43.259Z,73.2
2022-09-06T02:26:03.283Z,73.13
2022-09-06T02:26:23.325Z,73.12
2022-09-06T02:26:43.319Z,72.97
2022-09-06T02:27:03.334Z,73.01
2022-09-06T02:27:23.359Z,72.97
2022-09-06T02:27:43.387Z,72.94
2022-09-06T02:28:03.429Z,72.98
2022-09-06T02:28:23.481Z,72.92
2022-09-06T02:28:43.436Z,72.99
2022-09-06T02:29:03.461Z,73.07
2022-09-06T02:29:23.514Z,73.05
2022-09-06T02:29:43.500Z,73.16
2022-09-06T02:30:03.546Z,73.18
2022-09-06T02:30:23.589Z,73.16
2022-09-06T02:30:43.738Z,73.1
2022-09-06T02:31:03.875Z,73.15
2022-09-06T02:31:23.887Z,73.16
2022-09-06T02:31:43.867Z,73.08
2022-09-06T02:32:03.920Z,73.09
2022-09-06T02:32:24.010Z,73.08
2022-09-06T02:32:44.049Z,73.03
2022-09-06T02:33:04.137Z,72.97
2022-09-06T02:33:24.209Z,73.01
2022-09-06T02:33:44.254Z,72.89
2022-09-06T02:34:04.316Z,72.89
2022-09-06T02:34:24.371Z,72.81
2022-09-06T02:34:44.449Z,72.85
2022-09-06T02:35:04.484Z,72.88
2022-09-06T02:35:24.576Z,72.8
2022-09-06T02:35:44.634Z,72.76
2022-09-06T02:36:04.699Z,72.67
2022-09-06T02:36:24.782Z,72.65
2022-09-06T02:36:44.815Z,72.65
2022-09-06T02:37:04.880Z,72.43
2022-09-06T02:37:24.971Z,72.48
2022-09-06T02:37:45.022Z,72.49
2022-09-06T02:38:05.089Z,72.72
2022-09-06T02:38:25.196Z,72.76
2022-09-06T02:38:45.202Z,72.81
2022-09-06T02:39:05.271Z,72.76
2022-09-06T02:39:25.411Z,72.8
2022-09-06T02:39:45.489Z,72.46
2022-09-06T02:40:05.581Z,72.74
2022-09-06T02:40:25.538Z,72.66
2022-09-06T03:08:37.394Z,74.4
2022-09-06T03:08:57.344Z,74.46
2022-09-06T03:09:17.373Z,74.58
2022-09-06T03:09:37.381Z,74.51
2022-09-06T03:09:57.393Z,74.45
2022-09-06T03:10:17.435Z,74.45
2022-09-06T03:10:37.455Z,74.5
2022-09-06T03:10:57.514Z,74.48
2022-09-06T03:11:17.559Z,74.35
2022-09-06T03:11:37.600Z,74.57
2022-09-06T03:11:57.592Z,74.53
2022-09-06T03:12:17.658Z,74.41
2022-09-06T03:12:37.656Z,74.43
2022-09-06T03:12:57.652Z,74.37
2022-09-06T03:13:17.679Z,74.31
2022-09-06T03:13:37.695Z,74.22
2022-09-06T03:13:57.675Z,74.19
2022-09-06T03:14:17.703Z,74.17
2022-09-06T03:14:37.773Z,74.1
2022-09-06T03:14:57.841Z,74.1
2022-09-06T03:15:17.897Z,74.11
2022-09-06T03:15:38.003Z,74.1
2022-09-06T03:15:58.025Z,74.09
2022-09-06T03:16:18.110Z,74.02
2022-09-06T03:16:38.229Z,73.91
2022-09-06T03:16:58.287Z,73.79
2022-09-06T03:17:18.285Z,73.93
2022-09-06T03:17:38.348Z,73.94
2022-09-06T03:17:58.407Z,73.89
2022-09-06T03:18:18.478Z,74.02
2022-09-06T03:18:38.544Z,73.94
2022-09-06T03:18:58.611Z,74.02
2022-09-06T03:19:18.672Z,74.04
2022-09-06T03:19:38.752Z,74.01
2022-09-06T03:19:58.788Z,74.04
2022-09-06T03:20:18.871Z,74.06
2022-09-06T03:20:38.942Z,74.05
2022-09-06T03:20:59.016Z,74.04
2022-09-06T03:21:19.034Z,74.03
2022-09-06T03:21:39.102Z,74.06
2022-09-06T03:21:59.152Z,74.04
2022-09-06T03:22:19.224Z,74.03
2022-09-06T03:22:39.284Z,74.02
2022-09-06T03:22:59.361Z,74.04
2022-09-06T03:23:19.412Z,74
2022-09-06T03:23:39.492Z,74
2022-09-06T03:23:59.586Z,74
2022-09-06T03:24:19.665Z,73.98
2022-09-06T03:24:39.693Z,73.87
2022-09-06T03:24:59.774Z,73.78
2022-09-06T03:25:19.796Z,73.8
2022-09-06T03:25:39.879Z,73.82
2022-09-06T03:25:59.920Z,73.89
2022-09-06T03:26:20.015Z,73.87
2022-09-06T03:26:40.104Z,73.89
2022-09-06T03:27:00.148Z,73.89
2022-09-06T03:27:20.204Z,74.02
2022-09-06T03:27:40.269Z,73.9
2022-09-06T03:28:00.313Z,73.91
2022-09-06T03:28:20.422Z,73.89
2022-09-06T03:28:40.464Z,73.84
2022-09-06T03:29:00.518Z,73.82
2022-09-06T03:29:20.581Z,73.81
2022-09-06T03:29:40.662Z,73.74
2022-09-06T03:30:00.718Z,73.8
2022-09-06T03:30:20.765Z,73.79
2022-09-06T03:30:40.896Z,73.85
2022-09-06T03:31:00.995Z,73.82
2022-09-06T03:31:21.037Z,73.64
2022-09-06T03:31:41.031Z,73.71
2022-09-06T03:32:01.096Z,73.86
2022-09-06T03:32:21.142Z,73.99
2022-09-06T03:32:41.205Z,73.87
2022-09-06T03:33:02.945Z,73.72
2022-09-06T03:33:21.351Z,73.96
2022-09-06T03:33:41.402Z,74.07
2022-09-06T03:34:01.460Z,74.07
2022-09-06T03:34:21.543Z,74.1
2022-09-06T03:34:41.590Z,74.09
2022-09-06T03:35:01.682Z,74.11
2022-09-06T03:35:21.740Z,74.08
2022-09-06T03:35:41.811Z,74.11
2022-09-06T03:36:01.851Z,74
2022-09-06T03:36:21.917Z,74.07
2022-09-06T03:36:41.977Z,74.02
2022-09-06T03:37:02.052Z,73.96
2022-09-06T03:37:22.135Z,73.97
2022-09-06T03:37:42.171Z,73.98
2022-09-06T03:38:02.239Z,73.95
2022-09-06T03:38:22.381Z,74.01
2022-09-06T03:38:42.353Z,73.97
2022-09-06T03:39:02.428Z,74
2022-09-06T03:39:22.501Z,74.08
2022-09-06T03:39:42.578Z,74.11
2022-09-06T03:40:02.756Z,74.16
2022-09-06T03:40:22.677Z,74.21
2022-09-06T03:40:42.776Z,74.11
2022-09-06T03:41:02.805Z,74.07
2022-09-06T03:41:22.880Z,74.18
2022-09-06T03:41:42.923Z,74.27
2022-09-06T03:42:02.974Z,74.26
2022-09-06T03:42:23.051Z,74.31
2022-09-06T03:42:43.141Z,74.27
2022-09-06T03:43:03.202Z,74.31
2022-09-06T03:43:23.259Z,74.26
2022-09-06T03:43:43.321Z,74.31
2022-09-06T03:44:03.377Z,74.27
2022-09-06T03:44:23.438Z,74.31
2022-09-06T03:44:43.506Z,74.26
2022-09-06T03:45:03.566Z,74.22
2022-09-06T03:45:23.626Z,74.22
2022-09-06T03:45:43.735Z,74.2
2022-09-06T03:46:03.841Z,74.2
2022-09-06T03:46:23.895Z,74.22
2022-09-06T03:46:43.902Z,74.08
2022-09-06T03:47:03.961Z,74.11
2022-09-06T03:47:24.020Z,74.19
2022-09-06T03:47:44.084Z,74.26
2022-09-06T03:48:04.165Z,74.33
2022-09-06T03:48:24.216Z,74.35
2022-09-06T03:48:44.284Z,74.35
2022-09-06T03:49:04.339Z,74.32
2022-09-06T03:49:24.447Z,74.35
2022-09-06T03:49:44.459Z,74.25
2022-09-06T03:50:04.534Z,74.21
2022-09-06T03:50:24.598Z,74.21
2022-09-06T03:50:44.682Z,74.27
2022-09-06T03:51:04.728Z,74.35
2022-09-06T03:51:24.780Z,74.36
2022-09-06T03:51:44.862Z,74.42
2022-09-06T03:52:04.907Z,74.51
2022-09-06T03:52:24.982Z,74.42
2022-09-06T03:52:45.040Z,74.41
2022-09-06T03:53:05.111Z,74.53
2022-09-06T03:53:25.229Z,74.57
2022-09-06T03:53:45.243Z,74.57
2022-09-06T03:54:05.316Z,74.55
2022-09-06T03:54:25.356Z,74.55
2022-09-06T03:54:45.427Z,74.53
2022-09-06T03:55:05.524Z,74.49
2022-09-06T03:55:25.562Z,74.55
2022-09-06T03:55:45.628Z,74.53
2022-09-06T03:56:05.690Z,74.61
2022-09-06T03:56:25.751Z,74.44
2022-09-06T03:56:45.814Z,74.57
2022-09-06T03:57:05.873Z,74.56
2022-09-06T03:57:25.950Z,74.68
2022-09-06T03:57:45.982Z,74.63
2022-09-06T03:58:06.044Z,74.62
2022-09-06T03:58:26.171Z,74.58
2022-09-06T03:58:46.205Z,74.67
2022-09-06T03:59:06.237Z,74.64
2022-09-06T03:59:26.322Z,74.76
2022-09-06T03:59:46.407Z,74.75
2022-09-06T04:00:06.420Z,74.75
2022-09-06T04:00:26.521Z,74.74
2022-09-06T04:00:46.617Z,74.83
2022-09-06T04:01:06.773Z,74.85
2022-09-06T04:01:26.789Z,74.84
2022-09-06T04:01:46.760Z,74.8
2022-09-06T04:02:06.877Z,74.76
2022-09-06T04:02:26.905Z,74.67
2022-09-06T04:02:47.042Z,74.74
2022-09-06T04:03:07.011Z,74.77
2022-09-06T04:03:27.066Z,74.73
2022-09-06T04:03:47.129Z,74.75
2022-09-06T04:04:07.195Z,74.73
2022-09-06T04:04:27.244Z,74.73
2022-09-06T04:04:47.309Z,74.81
2022-09-06T04:05:07.385Z,74.77
2022-09-06T04:05:27.444Z,74.61
2022-09-06T04:05:47.518Z,74.7
2022-09-06T04:06:07.570Z,74.71
2022-09-06T04:06:27.687Z,74.62
2022-09-06T04:06:47.709Z,74.64
2022-09-06T04:07:07.752Z,74.79
2022-09-06T04:07:27.812Z,74.84
2022-09-06T04:07:47.883Z,74.85
2022-09-06T04:08:07.957Z,74.89
2022-09-06T04:08:28.183Z,74.95
2022-09-06T04:08:48.116Z,74.94
2022-09-06T04:09:08.151Z,74.94
2022-09-06T04:09:28.212Z,75.03
2022-09-06T04:09:48.257Z,75.05
2022-09-06T04:10:08.329Z,75.03
2022-09-06T04:10:28.386Z,75.08
2022-09-06T04:10:48.481Z,75.1
2022-09-06T04:11:08.535Z,75.15
2022-09-06T04:11:28.595Z,75.06
2022-09-06T04:11:48.632Z,75.13
2022-09-06T04:12:08.744Z,75.12
2022-09-06T04:12:28.780Z,75.11
2022-09-06T04:12:48.844Z,75.1
2022-09-06T04:13:08.909Z,75.09
2022-09-06T04:13:28.997Z,75.12
2022-09-06T04:13:49.050Z,75.09
2022-09-06T04:14:09.105Z,75.03
2022-09-06T04:14:29.170Z,74.98
2022-09-06T04:14:49.226Z,74.98
2022-09-06T04:15:09.320Z,75.02
2022-09-06T04:15:29.371Z,74.96
2022-09-06T04:15:49.439Z,74.97
2022-09-06T04:16:09.548Z,74.96
2022-09-06T04:16:29.654Z,74.92
2022-09-06T04:16:49.699Z,74.85
2022-09-06T04:17:09.663Z,74.96
2022-09-06T04:17:29.721Z,75.02
2022-09-06T04:17:49.796Z,75.04
2022-09-06T04:18:09.919Z,75.13
2022-09-06T04:18:30.118Z,75.12
2022-09-06T04:18:49.989Z,75.12
2022-09-06T04:19:10.073Z,75.05
2022-09-06T04:19:30.145Z,75.1
2022-09-06T04:19:50.196Z,75.1
2022-09-06T04:20:10.253Z,75.16
2022-09-06T04:20:30.321Z,75.16
2022-09-06T04:20:50.428Z,75.1
2022-09-06T04:21:10.479Z,75.2
2022-09-06T04:21:30.523Z,75.23
2022-09-06T04:21:50.577Z,75.24
2022-09-06T04:22:10.660Z,75.27
2022-09-06T04:22:30.701Z,75.29
2022-09-06T04:22:50.753Z,75.27
2022-09-06T04:23:10.829Z,75.27
2022-09-06T04:23:30.884Z,75.37
2022-09-06T04:23:50.990Z,75.4
2022-09-06T04:24:10.998Z,75.36
2022-09-06T04:24:31.084Z,75.46
2022-09-06T04:24:51.150Z,75.47
2022-09-06T04:25:11.212Z,75.52
2022-09-06T04:25:31.278Z,75.52
2022-09-06T04:25:51.349Z,75.52
2022-09-06T04:26:11.424Z,75.55
2022-09-06T04:26:31.455Z,75.56
2022-09-06T04:26:51.537Z,75.6
2022-09-06T04:27:11.599Z,75.58
2022-09-06T04:27:31.665Z,75.59
2022-09-06T04:27:51.729Z,75.55
2022-09-06T04:28:11.793Z,75.53
2022-09-06T04:28:31.871Z,75.48
2022-09-06T04:28:51.934Z,75.63
2022-09-06T04:29:11.985Z,75.63
2022-09-06T04:29:32.043Z,75.6
2022-09-06T04:29:52.117Z,75.61
2022-09-06T04:30:12.169Z,75.63
2022-09-06T04:30:32.246Z,75.65
2022-09-06T04:30:52.344Z,75.68
2022-09-06T04:31:12.381Z,75.65
2022-09-06T04:31:32.502Z,75.65
2022-09-06T04:31:52.553Z,75.62
2022-09-06T04:32:12.656Z,75.66
2022-09-06T04:32:32.677Z,75.7
2022-09-06T04:32:52.682Z,75.68
2022-09-06T04:33:12.748Z,75.67
2022-09-06T04:33:32.844Z,75.65
2022-09-06T04:33:52.917Z,75.73
2022-09-06T04:34:12.956Z,75.81
2022-09-06T04:34:33.026Z,75.85
2022-09-06T04:34:53.088Z,75.79
2022-09-06T04:35:13.129Z,75.82
2022-09-06T04:35:33.207Z,75.85
2022-09-06T04:35:53.283Z,75.85
2022-09-06T04:36:13.358Z,75.88
2022-09-06T04:36:33.400Z,75.87
2022-09-06T04:36:53.449Z,75.84
2022-09-06T04:37:13.530Z,75.85
2022-09-06T04:37:33.595Z,75.88
2022-09-06T04:37:53.647Z,75.96
2022-09-06T04:38:13.729Z,75.93
2022-09-06T04:38:33.768Z,75.98
2022-09-06T04:38:53.830Z,76.03
2022-09-06T04:39:13.915Z,75.96
2022-09-06T04:39:34.029Z,75.96
2022-09-06T04:39:54.112Z,76.02
2022-09-06T04:40:14.102Z,75.95
2022-09-06T04:40:34.130Z,75.88
2022-09-06T04:40:54.229Z,75.84
2022-09-06T04:41:14.292Z,75.92
2022-09-06T04:41:34.380Z,75.9
2022-09-06T04:41:54.410Z,76.01
2022-09-06T04:42:14.482Z,76.08
2022-09-06T04:42:34.553Z,75.97
2022-09-06T04:42:54.596Z,75.95
2022-09-06T04:43:14.660Z,75.99
2022-09-06T04:43:34.730Z,75.94
2022-09-06T04:43:54.812Z,75.85
2022-09-06T04:44:14.845Z,75.88
2022-09-06T04:44:34.905Z,75.99
2022-09-06T04:44:54.981Z,75.98
2022-09-06T04:45:15.047Z,75.97
2022-09-06T04:45:35.212Z,76.01
2022-09-06T04:45:55.238Z,75.98
2022-09-06T04:46:15.327Z,76.05
2022-09-06T04:46:35.327Z,76.04
2022-09-06T04:46:56.183Z,76.01
2022-09-06T04:47:15.438Z,76.05
2022-09-06T04:47:35.504Z,76